createdAt,value
2023-03-31T00:00:47.793Z,3.00
2023-03-31T00:01:48.049Z,2.90
2023-03-31T00:02:48.529Z,2.70
2023-03-31T00:03:48.807Z,2.80
2023-03-31T00:04:49.363Z,2.70
2023-03-31T00:05:49.383Z,2.80
2023-03-31T00:06:49.517Z,3.00
2023-03-31T00:07:49.835Z,2.80
2023-03-31T00:08:50.159Z,2.90
2023-03-31T00:09:50.539Z,2.90
2023-03-31T00:10:50.862Z,2.70
2023-03-31T00:11:51.154Z,3.00
2023-03-31T00:12:51.417Z,2.70
2023-03-31T00:13:51.665Z,2.90
2023-03-31T00:14:51.974Z,2.90
2023-03-31T00:15:54.370Z,2.80
2023-03-31T00:16:52.625Z,3.10
2023-03-31T00:17:52.976Z,2.90
2023-03-31T00:18:53.082Z,3.10
2023-03-31T00:19:53.370Z,3.00
2023-03-31T00:20:53.671Z,2.70
2023-03-31T00:21:53.929Z,2.90
2023-03-31T00:22:54.286Z,3.10
2023-03-31T00:23:54.654Z,2.90
2023-03-31T00:24:54.863Z,3.00
2023-03-31T00:25:55.175Z,3.10
2023-03-31T00:26:55.461Z,2.90
2023-03-31T00:27:55.747Z,3.00
2023-03-31T00:28:56.029Z,2.80
2023-03-31T00:29:56.351Z,3.10
2023-03-31T00:30:56.721Z,3.00
2023-03-31T00:31:57.095Z,3.50
2023-03-31T00:32:57.282Z,3.00
2023-03-31T00:33:57.634Z,3.10
2023-03-31T00:34:57.770Z,3.10
2023-03-31T00:35:58.521Z,3.00
2023-03-31T00:36:58.367Z,3.30
2023-03-31T00:37:58.703Z,3.20
2023-03-31T00:38:59.100Z,3.10
2023-03-31T00:39:59.284Z,3.00
2023-03-31T00:40:59.667Z,3.30
2023-03-31T00:41:59.825Z,2.90
2023-03-31T00:43:00.120Z,3.00
2023-03-31T00:44:00.444Z,2.80
2023-03-31T00:45:00.709Z,3.30
2023-03-31T00:46:01.058Z,3.10
2023-03-31T00:47:01.371Z,3.10
2023-03-31T00:48:01.705Z,3.10
2023-03-31T00:49:01.863Z,2.90
2023-03-31T00:50:02.192Z,3.10
2023-03-31T00:51:02.435Z,3.10
2023-03-31T00:52:02.784Z,3.10
2023-03-31T00:53:03.053Z,3.20
2023-03-31T00:54:03.389Z,3.10
2023-03-31T00:55:03.645Z,3.00
2023-03-31T00:56:04.250Z,2.90
2023-03-31T00:57:04.358Z,3.00
2023-03-31T00:58:04.508Z,3.10
2023-03-31T00:59:04.849Z,2.70
2023-03-31T01:00:05.153Z,3.10
2023-03-31T01:01:05.480Z,2.90
2023-03-31T01:02:05.637Z,3.00
2023-03-31T01:03:05.950Z,3.00
2023-03-31T01:04:06.354Z,3.10
2023-03-31T01:05:06.555Z,3.30
2023-03-31T01:06:06.998Z,3.10
2023-03-31T01:07:07.107Z,3.10
2023-03-31T01:08:07.439Z,3.00
2023-03-31T01:09:07.765Z,2.90
2023-03-31T01:10:08.555Z,3.30
2023-03-31T01:11:08.282Z,2.90
2023-03-31T01:12:08.580Z,3.50
2023-03-31T01:13:08.921Z,3.20
2023-03-31T01:14:09.225Z,3.00
2023-03-31T01:15:09.594Z,3.20
2023-03-31T01:16:09.740Z,3.20
2023-03-31T01:17:10.095Z,3.20
2023-03-31T01:18:10.383Z,3.50
2023-03-31T01:19:10.561Z,3.10
2023-03-31T01:20:10.811Z,3.30
2023-03-31T01:21:11.119Z,3.40
2023-03-31T01:22:11.417Z,3.20
2023-03-31T01:23:11.738Z,3.30
2023-03-31T01:24:12.016Z,3.30
2023-03-31T01:25:12.364Z,3.10
2023-03-31T01:26:12.666Z,2.90
2023-03-31T01:27:12.949Z,3.10
2023-03-31T01:28:13.352Z,3.10
2023-03-31T01:29:13.530Z,3.10
2023-03-31T01:30:13.833Z,2.90
2023-03-31T01:31:14.154Z,3.00
2023-03-31T01:32:14.518Z,3.20
2023-03-31T01:33:14.719Z,2.90
2023-03-31T01:34:15.022Z,2.90
2023-03-31T01:35:15.448Z,3.10
2023-03-31T01:36:15.695Z,3.20
2023-03-31T01:37:15.963Z,2.90
2023-03-31T01:38:16.291Z,3.10
2023-03-31T01:39:16.558Z,3.10
2023-03-31T01:40:16.930Z,2.90
2023-03-31T01:41:18.639Z,2.90
2023-03-31T01:42:17.503Z,3.10
2023-03-31T01:43:17.814Z,3.30
2023-03-31T01:44:18.089Z,3.20
2023-03-31T01:45:18.403Z,2.90
2023-03-31T01:46:18.671Z,3.00
2023-03-31T01:47:18.964Z,3.50
2023-03-31T01:48:19.425Z,3.00
2023-03-31T01:49:19.508Z,3.00
2023-03-31T01:50:19.746Z,2.90
2023-03-31T01:51:20.065Z,3.00
2023-03-31T01:52:20.650Z,3.00
2023-03-31T01:53:20.761Z,3.10
2023-03-31T01:54:21.036Z,2.90
2023-03-31T01:55:21.304Z,3.10
2023-03-31T01:56:22.661Z,3.00
2023-03-31T01:57:21.866Z,3.20
2023-03-31T01:58:22.127Z,3.10
2023-03-31T01:59:22.454Z,3.00
2023-03-31T02:00:22.753Z,3.00
2023-03-31T02:01:23.103Z,3.40
2023-03-31T02:02:23.485Z,3.20
2023-03-31T02:03:23.714Z,3.00
2023-03-31T02:04:23.991Z,3.40
2023-03-31T02:05:25.208Z,3.30
2023-03-31T02:06:24.574Z,3.00
2023-03-31T02:07:24.767Z,3.00
2023-03-31T02:08:25.554Z,3.20
2023-03-31T02:09:25.348Z,3.00
2023-03-31T02:10:25.621Z,3.20
2023-03-31T02:11:25.916Z,2.90
2023-03-31T02:12:26.218Z,2.90
2023-03-31T02:13:26.651Z,3.00
2023-03-31T02:14:26.818Z,3.00
2023-03-31T02:15:27.096Z,3.20
2023-03-31T02:16:27.450Z,3.00
2023-03-31T02:17:27.774Z,3.10
2023-03-31T02:18:28.003Z,3.00
2023-03-31T02:19:28.279Z,3.20
2023-03-31T02:20:28.564Z,3.00
2023-03-31T02:21:28.931Z,3.30
2023-03-31T02:22:29.193Z,3.10
2023-03-31T02:23:29.517Z,3.20
2023-03-31T02:24:29.831Z,3.00
2023-03-31T02:25:30.099Z,3.10
2023-03-31T02:26:30.384Z,3.30
2023-03-31T02:27:30.653Z,3.20
2023-03-31T02:28:30.912Z,3.10
2023-03-31T02:29:31.260Z,2.80
2023-03-31T02:30:31.667Z,3.00
2023-03-31T02:31:31.889Z,3.10
2023-03-31T02:32:32.250Z,3.10
2023-03-31T02:33:32.615Z,3.00
2023-03-31T02:34:33.127Z,3.20
2023-03-31T02:35:32.982Z,3.00
2023-03-31T02:36:33.261Z,3.00
2023-03-31T02:37:34.617Z,3.00
2023-03-31T02:38:33.829Z,3.30
2023-03-31T02:39:34.106Z,3.20
2023-03-31T02:40:34.322Z,3.10
2023-03-31T02:41:34.735Z,3.10
2023-03-31T02:42:34.963Z,3.10
2023-03-31T02:43:35.686Z,2.90
2023-03-31T02:44:35.646Z,3.00
2023-03-31T02:45:36.034Z,3.00
2023-03-31T02:46:36.232Z,3.00
2023-03-31T02:47:36.520Z,3.00
2023-03-31T02:48:36.876Z,3.00
2023-03-31T02:49:37.193Z,2.90
2023-03-31T02:50:37.362Z,2.70
2023-03-31T02:51:37.713Z,2.70
2023-03-31T02:52:38.068Z,3.10
2023-03-31T02:53:38.346Z,2.70
2023-03-31T02:54:38.548Z,2.70
2023-03-31T02:55:38.828Z,2.80
2023-03-31T02:56:39.058Z,2.60
2023-03-31T02:57:39.411Z,2.90
2023-03-31T02:58:39.612Z,2.80
2023-03-31T02:59:39.940Z,2.90
2023-03-31T03:00:41.141Z,2.90
2023-03-31T03:01:40.620Z,2.90
2023-03-31T03:02:40.851Z,3.10
2023-03-31T03:03:41.052Z,3.00
2023-03-31T03:04:41.239Z,3.00
2023-03-31T03:05:41.544Z,2.80
2023-03-31T03:06:41.844Z,3.00
2023-03-31T03:07:42.337Z,2.90
2023-03-31T03:08:42.462Z,3.10
2023-03-31T03:09:42.792Z,2.60
2023-03-31T03:10:43.116Z,2.80
2023-03-31T03:11:43.377Z,3.00
2023-03-31T03:12:43.811Z,2.80
2023-03-31T03:13:43.971Z,2.80
2023-03-31T03:14:44.189Z,2.90
2023-03-31T03:15:44.918Z,3.20
2023-03-31T03:16:45.650Z,2.60
2023-03-31T03:17:45.139Z,2.70
2023-03-31T03:18:46.283Z,3.10
2023-03-31T03:19:45.845Z,2.80
2023-03-31T03:20:46.000Z,2.90
2023-03-31T03:21:46.357Z,2.70
2023-03-31T03:22:46.554Z,2.60
2023-03-31T03:23:46.881Z,2.80
2023-03-31T03:24:47.154Z,2.50
2023-03-31T03:25:47.471Z,2.50
2023-03-31T03:26:47.816Z,2.70
2023-03-31T03:27:48.079Z,2.40
2023-03-31T03:28:48.486Z,2.70
2023-03-31T03:29:48.879Z,2.50
2023-03-31T03:30:49.061Z,2.90
2023-03-31T03:31:49.443Z,2.60
2023-03-31T03:32:49.677Z,2.90
2023-03-31T03:33:49.850Z,2.80
2023-03-31T03:34:50.065Z,2.60
2023-03-31T03:35:50.410Z,2.50
2023-03-31T03:36:50.682Z,2.60
2023-03-31T03:37:50.922Z,2.50
2023-03-31T03:38:51.189Z,2.70
2023-03-31T03:39:51.632Z,4.30
2023-03-31T03:40:51.903Z,2.90
2023-03-31T03:41:52.121Z,3.20
2023-03-31T03:42:52.441Z,2.60
2023-03-31T03:43:52.694Z,2.50
2023-03-31T03:44:53.158Z,2.40
2023-03-31T03:45:53.311Z,2.50
2023-03-31T03:46:53.617Z,2.50
2023-03-31T03:47:53.788Z,2.50
2023-03-31T03:48:54.056Z,2.50
2023-03-31T03:49:54.325Z,2.50
2023-03-31T03:50:54.612Z,2.50
2023-03-31T03:51:54.885Z,2.50
2023-03-31T03:52:56.061Z,2.70
2023-03-31T03:53:55.475Z,2.50
2023-03-31T03:54:55.806Z,2.70
2023-03-31T03:55:56.021Z,2.70
2023-03-31T03:56:56.402Z,2.70
2023-03-31T03:57:56.614Z,2.60
2023-03-31T03:58:57.839Z,2.70
2023-03-31T03:59:58.030Z,2.50
2023-03-31T04:00:58.240Z,2.70
2023-03-31T04:01:58.541Z,2.50
2023-03-31T04:02:58.206Z,2.70
2023-03-31T04:03:58.317Z,2.40
2023-03-31T04:04:58.903Z,2.50
2023-03-31T04:05:59.018Z,5.60
2023-03-31T04:06:59.149Z,6.50
2023-03-31T04:07:59.787Z,2.90
2023-03-31T04:08:59.726Z,2.70
2023-03-31T04:10:00.019Z,3.30
2023-03-31T04:11:00.334Z,2.80
2023-03-31T04:12:00.576Z,2.80
2023-03-31T04:13:00.832Z,2.70
2023-03-31T04:14:01.178Z,2.70
2023-03-31T04:15:01.475Z,2.80
2023-03-31T04:16:01.813Z,2.60
2023-03-31T04:17:02.101Z,2.60
2023-03-31T04:18:02.379Z,2.60
2023-03-31T04:19:02.654Z,2.80
2023-03-31T04:20:02.909Z,2.50
2023-03-31T04:21:03.259Z,2.80
2023-03-31T04:22:03.521Z,3.60
2023-03-31T04:23:03.867Z,2.80
2023-03-31T04:24:04.068Z,2.80
2023-03-31T04:25:04.379Z,2.90
2023-03-31T04:26:04.932Z,2.80
2023-03-31T04:27:04.975Z,3.00
2023-03-31T04:28:05.147Z,2.90
2023-03-31T04:29:05.530Z,3.10
2023-03-31T04:30:05.786Z,3.10
2023-03-31T04:31:06.124Z,2.90
2023-03-31T04:32:06.433Z,2.90
2023-03-31T04:33:06.713Z,2.90
2023-03-31T04:34:06.943Z,3.10
2023-03-31T04:35:07.291Z,3.00
2023-03-31T04:36:08.040Z,2.90
2023-03-31T04:37:07.866Z,2.80
2023-03-31T04:38:15.072Z,3.00
2023-03-31T04:39:08.289Z,3.20
2023-03-31T04:40:08.662Z,3.00
2023-03-31T04:41:08.868Z,2.90
2023-03-31T04:42:09.258Z,2.90
2023-03-31T04:43:09.556Z,3.40
2023-03-31T04:44:09.808Z,3.10
2023-03-31T04:45:10.081Z,2.80
2023-03-31T04:46:10.590Z,2.80
2023-03-31T04:47:10.678Z,2.90
2023-03-31T04:48:10.903Z,3.20
2023-03-31T04:49:11.215Z,2.90
2023-03-31T04:50:15.264Z,2.90
2023-03-31T04:51:12.887Z,2.90
2023-03-31T04:52:12.206Z,2.90
2023-03-31T04:53:12.418Z,2.80
2023-03-31T04:54:12.714Z,2.60
2023-03-31T04:55:12.978Z,2.80
2023-03-31T04:56:13.304Z,2.70
2023-03-31T04:57:13.637Z,2.80
2023-03-31T04:58:13.857Z,2.80
2023-03-31T04:59:14.240Z,2.60
2023-03-31T05:00:14.543Z,3.00
2023-03-31T05:01:14.739Z,2.80
2023-03-31T05:02:15.054Z,2.80
2023-03-31T05:03:15.372Z,3.20
2023-03-31T05:04:15.560Z,2.80
2023-03-31T05:05:15.864Z,2.90
2023-03-31T05:06:16.240Z,3.00
2023-03-31T05:07:16.490Z,2.80
2023-03-31T05:08:16.890Z,3.10
2023-03-31T05:09:17.032Z,3.00
2023-03-31T05:10:17.418Z,3.00
2023-03-31T05:11:17.624Z,3.00
2023-03-31T05:12:18.859Z,3.30
2023-03-31T05:13:18.531Z,3.00
2023-03-31T05:14:18.539Z,3.10
2023-03-31T05:15:18.778Z,3.20
2023-03-31T05:16:18.977Z,3.20
2023-03-31T05:17:19.534Z,3.30
2023-03-31T05:18:19.623Z,3.30
2023-03-31T05:19:19.844Z,3.10
2023-03-31T05:20:20.090Z,3.20
2023-03-31T05:21:20.314Z,3.20
2023-03-31T05:22:20.723Z,3.50
2023-03-31T05:23:20.990Z,3.20
2023-03-31T05:24:21.192Z,3.40
2023-03-31T05:25:21.429Z,3.20
2023-03-31T05:26:21.682Z,3.30
2023-03-31T05:27:22.045Z,3.30
2023-03-31T05:28:22.275Z,3.50
2023-03-31T05:29:22.592Z,3.40
2023-03-31T05:30:22.814Z,3.80
2023-03-31T05:31:23.742Z,14.60
2023-03-31T05:32:23.348Z,3.40
2023-03-31T05:33:23.634Z,5.50
2023-03-31T05:34:24.385Z,3.20
2023-03-31T05:35:24.279Z,3.30
2023-03-31T05:36:25.071Z,3.90
2023-03-31T05:37:24.992Z,3.30
2023-03-31T05:38:25.182Z,3.30
2023-03-31T05:39:25.574Z,3.30
2023-03-31T05:40:25.752Z,3.20
2023-03-31T05:41:26.195Z,3.30
2023-03-31T05:42:26.362Z,3.30
2023-03-31T05:43:26.587Z,3.70
2023-03-31T05:44:26.951Z,3.50
2023-03-31T05:45:27.306Z,3.60
2023-03-31T05:46:27.550Z,3.80
2023-03-31T05:47:27.893Z,3.50
2023-03-31T05:48:28.042Z,3.80
2023-03-31T05:49:28.379Z,3.40
2023-03-31T05:50:28.649Z,3.90
2023-03-31T05:51:28.875Z,3.50
2023-03-31T05:52:29.203Z,3.70
2023-03-31T05:53:29.414Z,3.60
2023-03-31T05:54:29.693Z,3.80
2023-03-31T05:55:31.829Z,3.80
2023-03-31T05:56:30.338Z,3.70
2023-03-31T05:57:30.727Z,3.70
2023-03-31T05:58:30.893Z,3.80
2023-03-31T05:59:31.268Z,3.90
2023-03-31T06:00:31.543Z,3.80
2023-03-31T06:01:31.984Z,3.80
2023-03-31T06:02:32.081Z,4.10
2023-03-31T06:03:32.327Z,3.50
2023-03-31T06:04:32.709Z,3.90
2023-03-31T06:05:32.806Z,3.80
2023-03-31T06:06:33.984Z,4.10
2023-03-31T06:07:33.519Z,4.00
2023-03-31T06:08:33.553Z,4.10
2023-03-31T06:09:33.803Z,4.20
2023-03-31T06:10:34.013Z,4.10
2023-03-31T06:11:34.476Z,4.10
2023-03-31T06:12:34.633Z,4.20
2023-03-31T06:13:35.030Z,4.30
2023-03-31T06:14:35.290Z,4.00
2023-03-31T06:15:35.546Z,4.00
2023-03-31T06:16:35.825Z,4.00
2023-03-31T06:17:38.018Z,3.90
2023-03-31T06:18:36.484Z,4.30
2023-03-31T06:19:36.799Z,4.00
2023-03-31T06:20:37.073Z,4.40
2023-03-31T06:21:37.321Z,4.10
2023-03-31T06:22:37.554Z,4.40
2023-03-31T06:23:38.006Z,4.30
2023-03-31T06:24:38.206Z,4.60
2023-03-31T06:25:50.305Z,4.20
2023-03-31T06:26:39.701Z,4.50
2023-03-31T06:27:38.948Z,4.40
2023-03-31T06:28:40.517Z,4.40
2023-03-31T06:29:39.681Z,4.30
2023-03-31T06:30:39.759Z,4.20
2023-03-31T06:31:40.033Z,4.40
2023-03-31T06:32:40.313Z,4.30
2023-03-31T06:33:40.595Z,4.50
2023-03-31T06:34:40.774Z,4.30
2023-03-31T06:35:41.206Z,4.30
2023-03-31T06:36:41.584Z,4.40
2023-03-31T06:37:41.717Z,4.60
2023-03-31T06:38:41.887Z,4.40
2023-03-31T06:39:42.167Z,4.50
2023-03-31T06:40:42.679Z,4.30
2023-03-31T06:41:42.834Z,4.30
2023-03-31T06:42:42.993Z,4.60
2023-03-31T06:43:43.302Z,4.40
2023-03-31T06:44:43.709Z,4.70
2023-03-31T06:45:43.891Z,4.50
2023-03-31T06:46:44.322Z,4.80
2023-03-31T06:47:44.415Z,4.50
2023-03-31T06:48:44.645Z,4.40
2023-03-31T06:49:45.054Z,4.60
2023-03-31T06:50:45.299Z,4.60
2023-03-31T06:51:45.604Z,4.30
2023-03-31T06:52:45.809Z,4.60
2023-03-31T06:53:46.143Z,5.00
2023-03-31T06:54:46.462Z,4.70
2023-03-31T06:55:46.637Z,4.50
2023-03-31T06:56:46.902Z,4.30
2023-03-31T06:57:47.103Z,5.00
2023-03-31T06:58:47.460Z,4.60
2023-03-31T06:59:47.717Z,4.40
2023-03-31T07:00:47.975Z,4.90
2023-03-31T07:01:48.209Z,4.70
2023-03-31T07:02:48.611Z,4.50
2023-03-31T07:03:48.768Z,4.90
2023-03-31T07:04:48.992Z,4.70
2023-03-31T07:05:49.349Z,4.70
2023-03-31T07:06:49.627Z,4.80
2023-03-31T07:07:49.877Z,4.60
2023-03-31T07:08:50.093Z,4.70
2023-03-31T07:09:50.392Z,4.80
2023-03-31T07:10:50.743Z,4.70
2023-03-31T07:11:51.134Z,4.60
2023-03-31T07:12:51.357Z,4.70
2023-03-31T07:13:51.705Z,4.70
2023-03-31T07:14:52.111Z,4.50
2023-03-31T07:15:52.275Z,4.80
2023-03-31T07:16:52.458Z,5.10
2023-03-31T07:17:52.854Z,4.90
2023-03-31T07:18:53.066Z,5.30
2023-03-31T07:19:53.315Z,4.80
2023-03-31T07:20:53.677Z,5.00
2023-03-31T07:21:53.976Z,5.60
2023-03-31T07:22:54.165Z,5.30
2023-03-31T07:23:54.586Z,5.20
2023-03-31T07:24:54.860Z,5.20
2023-03-31T07:25:55.044Z,5.70
2023-03-31T07:26:56.258Z,5.30
2023-03-31T07:27:55.641Z,5.40
2023-03-31T07:28:55.906Z,5.90
2023-03-31T07:29:56.115Z,5.30
2023-03-31T07:30:56.508Z,5.10
2023-03-31T07:31:56.877Z,5.70
2023-03-31T07:32:57.047Z,5.30
2023-03-31T07:33:57.331Z,5.50
2023-03-31T07:34:57.563Z,5.90
2023-03-31T07:36:10.622Z,5.00
2023-03-31T07:36:59.205Z,5.10
2023-03-31T07:37:58.456Z,5.50
2023-03-31T07:38:58.712Z,4.90
2023-03-31T07:39:59.198Z,4.90
2023-03-31T07:41:08.249Z,4.60
2023-03-31T07:42:00.677Z,4.70
2023-03-31T07:42:59.937Z,5.10
2023-03-31T07:44:00.183Z,4.70
2023-03-31T07:45:00.487Z,4.90
2023-03-31T07:46:00.743Z,5.00
2023-03-31T07:47:00.985Z,4.90
2023-03-31T07:48:01.259Z,4.90
2023-03-31T07:49:01.605Z,4.80
2023-03-31T07:50:01.906Z,5.00
2023-03-31T07:51:02.049Z,4.70
2023-03-31T07:52:02.484Z,4.70
2023-03-31T07:53:02.746Z,4.70
2023-03-31T07:54:02.933Z,5.00
2023-03-31T07:55:03.337Z,4.80
2023-03-31T07:56:03.744Z,4.70
2023-03-31T07:57:03.885Z,4.90
2023-03-31T07:58:04.204Z,4.70
2023-03-31T07:59:04.461Z,4.60
2023-03-31T08:00:04.637Z,4.90
2023-03-31T08:01:05.255Z,4.50
2023-03-31T08:02:34.261Z,4.70
2023-03-31T08:03:05.541Z,4.70
2023-03-31T08:04:06.029Z,4.60
2023-03-31T08:05:07.208Z,4.90
2023-03-31T08:06:06.534Z,4.80
2023-03-31T08:07:06.544Z,4.70
2023-03-31T08:08:06.741Z,4.80
2023-03-31T08:09:07.102Z,4.70
2023-03-31T08:10:07.677Z,4.60
2023-03-31T08:11:08.051Z,4.90
2023-03-31T08:12:07.881Z,4.90
2023-03-31T08:13:08.213Z,4.60
2023-03-31T08:14:08.608Z,5.40
2023-03-31T08:15:09.014Z,5.90
2023-03-31T08:16:09.376Z,5.40
2023-03-31T08:17:09.237Z,4.80
2023-03-31T08:18:10.021Z,4.70
2023-03-31T08:19:10.137Z,5.00
2023-03-31T08:20:10.105Z,4.80
2023-03-31T08:21:10.343Z,4.30
2023-03-31T08:22:10.631Z,4.30
2023-03-31T08:23:10.978Z,4.70
2023-03-31T08:24:11.176Z,4.60
2023-03-31T08:25:11.495Z,5.50
2023-03-31T08:26:11.782Z,4.50
2023-03-31T08:27:12.532Z,4.30
2023-03-31T08:28:12.346Z,4.40
2023-03-31T08:29:12.525Z,4.30
2023-03-31T08:30:12.926Z,4.40
2023-03-31T08:31:13.194Z,3.90
2023-03-31T08:32:13.442Z,4.30
2023-03-31T08:33:13.737Z,4.10
2023-03-31T08:34:13.935Z,4.20
2023-03-31T08:35:14.355Z,4.40
2023-03-31T08:36:15.741Z,4.60
2023-03-31T08:37:14.923Z,4.90
2023-03-31T08:38:15.231Z,5.20
2023-03-31T08:39:15.396Z,5.30
2023-03-31T08:40:15.753Z,5.10
2023-03-31T08:41:16.135Z,4.70
2023-03-31T08:42:16.509Z,5.30
2023-03-31T08:43:16.622Z,5.40
2023-03-31T08:44:16.884Z,5.40
2023-03-31T08:45:18.406Z,5.20
2023-03-31T08:46:17.603Z,5.20
2023-03-31T08:47:17.774Z,5.40
2023-03-31T08:48:17.998Z,5.20
2023-03-31T08:49:18.290Z,5.10
2023-03-31T08:50:18.506Z,5.00
2023-03-31T08:51:18.882Z,5.80
2023-03-31T08:52:19.169Z,5.30
2023-03-31T08:53:19.384Z,5.40
2023-03-31T08:54:19.746Z,5.40
2023-03-31T08:55:20.175Z,5.60
2023-03-31T08:56:20.341Z,5.30
2023-03-31T08:57:20.645Z,5.40
2023-03-31T08:58:21.018Z,5.60
2023-03-31T08:59:21.237Z,5.30
2023-03-31T09:00:21.551Z,5.70
2023-03-31T09:01:21.847Z,5.40
2023-03-31T09:02:22.167Z,5.50
2023-03-31T09:03:22.454Z,5.50
2023-03-31T09:04:22.723Z,5.70
2023-03-31T09:05:22.939Z,5.80
2023-03-31T09:06:23.157Z,5.70
2023-03-31T09:07:23.541Z,5.60
2023-03-31T09:08:23.937Z,5.40
2023-03-31T09:09:25.687Z,5.60
2023-03-31T09:10:24.446Z,6.00
2023-03-31T09:11:24.862Z,5.50
2023-03-31T09:12:25.093Z,5.10
2023-03-31T09:13:25.149Z,5.80
2023-03-31T09:14:25.508Z,5.50
2023-03-31T09:15:25.774Z,5.80
2023-03-31T09:16:26.130Z,5.70
2023-03-31T09:17:26.444Z,5.20
2023-03-31T09:18:26.706Z,5.20
2023-03-31T09:19:26.981Z,4.20
2023-03-31T09:20:27.246Z,4.00
2023-03-31T09:21:27.472Z,4.10
2023-03-31T09:22:27.719Z,3.80
2023-03-31T09:23:27.988Z,3.90
2023-03-31T09:24:29.747Z,3.80
2023-03-31T09:25:28.583Z,4.10
2023-03-31T09:26:28.897Z,4.30
2023-03-31T09:27:29.038Z,4.20
2023-03-31T09:28:29.405Z,4.40
2023-03-31T09:29:29.614Z,4.20
2023-03-31T09:30:29.991Z,4.70
2023-03-31T09:31:30.290Z,4.20
2023-03-31T09:32:30.611Z,4.40
2023-03-31T09:33:30.755Z,5.40
2023-03-31T09:34:31.112Z,4.70
2023-03-31T09:35:31.381Z,5.00
2023-03-31T09:36:31.724Z,5.70
2023-03-31T09:37:32.008Z,4.40
2023-03-31T09:38:32.190Z,6.10
2023-03-31T09:39:32.638Z,5.60
2023-03-31T09:40:33.014Z,4.40
2023-03-31T09:41:34.313Z,4.20
2023-03-31T09:42:33.343Z,3.90
2023-03-31T09:43:33.693Z,9.50
2023-03-31T09:44:33.983Z,4.30
2023-03-31T09:45:34.217Z,4.40
2023-03-31T09:46:34.496Z,5.70
2023-03-31T09:47:34.783Z,3.70
2023-03-31T09:48:35.049Z,3.50
2023-03-31T09:49:35.314Z,3.50
2023-03-31T09:50:35.489Z,3.00
2023-03-31T09:51:35.754Z,3.50
2023-03-31T09:52:36.140Z,5.70
2023-03-31T09:53:36.806Z,3.80
2023-03-31T09:54:36.652Z,3.60
2023-03-31T09:55:39.924Z,4.60
2023-03-31T09:56:37.535Z,4.70
2023-03-31T09:57:37.474Z,5.20
2023-03-31T09:58:37.680Z,4.50
2023-03-31T09:59:38.025Z,6.40
2023-03-31T10:00:38.224Z,5.50
2023-03-31T10:01:38.547Z,4.60
2023-03-31T10:02:39.021Z,4.60
2023-03-31T10:03:39.186Z,4.90
2023-03-31T10:04:39.454Z,4.60
2023-03-31T10:05:39.566Z,4.80
2023-03-31T10:06:39.780Z,6.20
2023-03-31T10:07:40.248Z,4.40
2023-03-31T10:08:40.419Z,3.60
2023-03-31T10:09:40.745Z,3.50
2023-03-31T10:10:41.051Z,3.60
2023-03-31T10:11:41.328Z,3.70
2023-03-31T10:12:41.593Z,7.70
2023-03-31T10:13:41.836Z,7.60
2023-03-31T10:14:42.072Z,6.40
2023-03-31T10:15:42.479Z,5.20
2023-03-31T10:16:42.690Z,3.90
2023-03-31T10:17:53.894Z,3.80
2023-03-31T10:18:44.260Z,3.50
2023-03-31T10:19:43.506Z,3.70
2023-03-31T10:20:43.773Z,3.70
2023-03-31T10:21:44.046Z,3.40
2023-03-31T10:22:44.372Z,3.40
2023-03-31T10:23:45.846Z,3.30
2023-03-31T10:24:44.840Z,3.50
2023-03-31T10:25:45.098Z,5.30
2023-03-31T10:26:45.380Z,5.50
2023-03-31T10:27:45.671Z,5.60
2023-03-31T10:28:45.994Z,4.60
2023-03-31T10:29:46.188Z,4.50
2023-03-31T10:30:46.543Z,5.60
2023-03-31T10:31:46.747Z,4.90
2023-03-31T10:32:49.498Z,4.50
2023-03-31T10:33:47.416Z,3.70
2023-03-31T10:34:47.670Z,3.70
2023-03-31T10:35:47.908Z,3.80
2023-03-31T10:36:48.316Z,3.80
2023-03-31T10:37:48.657Z,4.30
2023-03-31T10:38:48.901Z,5.50
2023-03-31T10:39:49.144Z,4.70
2023-03-31T10:40:49.372Z,4.40
2023-03-31T10:41:49.764Z,4.10
2023-03-31T10:42:50.077Z,4.60
2023-03-31T10:43:50.417Z,4.80
2023-03-31T10:44:50.613Z,4.20
2023-03-31T10:45:51.026Z,4.40
2023-03-31T10:46:51.168Z,4.60
2023-03-31T10:47:51.430Z,4.60
2023-03-31T10:48:51.703Z,4.90
2023-03-31T10:49:51.929Z,4.70
2023-03-31T10:50:52.319Z,3.80
2023-03-31T10:51:52.528Z,4.10
2023-03-31T10:52:52.782Z,4.60
2023-03-31T10:53:53.238Z,4.30
2023-03-31T10:54:53.447Z,3.70
2023-03-31T10:55:53.683Z,4.00
2023-03-31T10:56:54.342Z,4.00
2023-03-31T10:57:54.180Z,4.00
2023-03-31T10:59:04.522Z,3.60
2023-03-31T10:59:55.715Z,4.60
2023-03-31T11:00:55.010Z,3.70
2023-03-31T11:01:56.272Z,4.30
2023-03-31T11:02:55.569Z,4.30
2023-03-31T11:03:56.160Z,4.80
2023-03-31T11:04:56.149Z,4.20
2023-03-31T11:05:56.415Z,4.50
2023-03-31T11:06:56.622Z,4.00
2023-03-31T11:07:57.228Z,4.30
2023-03-31T11:08:57.174Z,4.50
2023-03-31T11:09:57.522Z,7.50
2023-03-31T11:10:57.754Z,3.60
2023-03-31T11:11:58.145Z,3.60
2023-03-31T11:12:58.418Z,3.90
2023-03-31T11:13:58.688Z,4.20
2023-03-31T11:14:59.066Z,3.70
2023-03-31T11:15:59.319Z,4.20
2023-03-31T11:16:59.693Z,4.00
2023-03-31T11:17:59.843Z,4.50
2023-03-31T11:19:00.000Z,5.60
2023-03-31T11:20:00.376Z,5.70
2023-03-31T11:21:00.752Z,3.70
2023-03-31T11:22:00.992Z,3.70
2023-03-31T11:23:01.220Z,3.60
2023-03-31T11:24:01.460Z,3.40
2023-03-31T11:25:01.844Z,3.70
2023-03-31T11:26:02.059Z,3.50
2023-03-31T11:27:02.346Z,3.60
2023-03-31T11:28:02.603Z,3.00
2023-03-31T11:29:02.812Z,3.50
2023-03-31T11:30:03.262Z,3.70
2023-03-31T11:31:03.530Z,3.20
2023-03-31T11:32:03.916Z,4.50
2023-03-31T11:33:04.135Z,4.20
2023-03-31T11:34:04.375Z,5.70
2023-03-31T11:35:04.744Z,3.90
2023-03-31T11:36:05.077Z,3.00
2023-03-31T11:37:05.252Z,2.80
2023-03-31T11:38:05.636Z,3.20
2023-03-31T11:39:05.848Z,3.60
2023-03-31T11:40:06.233Z,3.00
2023-03-31T11:41:06.684Z,2.60
2023-03-31T11:42:06.834Z,3.20
2023-03-31T11:43:07.256Z,2.70
2023-03-31T11:44:07.327Z,2.70
2023-03-31T11:45:07.647Z,2.60
2023-03-31T11:46:08.248Z,2.80
2023-03-31T11:47:08.201Z,2.70
2023-03-31T11:48:08.654Z,2.80
2023-03-31T11:49:08.772Z,2.50
2023-03-31T11:50:09.100Z,2.60
2023-03-31T11:51:09.332Z,2.60
2023-03-31T11:52:10.750Z,2.80
2023-03-31T11:53:09.903Z,3.00
2023-03-31T11:54:10.157Z,2.80
2023-03-31T11:55:11.325Z,2.50
2023-03-31T11:56:10.680Z,2.50
2023-03-31T11:57:11.136Z,2.80
2023-03-31T11:58:11.149Z,2.90
2023-03-31T11:59:11.517Z,2.90
2023-03-31T12:00:11.733Z,3.80
2023-03-31T12:01:12.003Z,3.90
2023-03-31T12:02:12.249Z,4.80
2023-03-31T12:03:12.680Z,3.90
2023-03-31T12:04:13.072Z,4.60
2023-03-31T12:05:13.127Z,4.70
2023-03-31T12:06:13.362Z,4.20
2023-03-31T12:07:13.551Z,3.90
2023-03-31T12:08:13.951Z,4.30
2023-03-31T12:09:14.046Z,4.40
2023-03-31T12:10:14.490Z,4.50
2023-03-31T12:11:14.505Z,5.30
2023-03-31T12:12:14.916Z,5.80
2023-03-31T12:13:15.150Z,6.40
2023-03-31T12:14:15.523Z,7.00
2023-03-31T12:15:15.678Z,5.50
2023-03-31T12:16:15.993Z,4.20
2023-03-31T12:17:16.214Z,4.70
2023-03-31T12:18:16.442Z,5.20
2023-03-31T12:19:16.802Z,5.90
2023-03-31T12:20:16.859Z,5.80
2023-03-31T12:21:17.304Z,5.00
2023-03-31T12:22:17.495Z,5.30
2023-03-31T12:23:17.836Z,4.20
2023-03-31T12:24:18.087Z,3.00
2023-03-31T12:25:18.416Z,3.00
2023-03-31T12:26:18.817Z,3.20
2023-03-31T12:27:18.884Z,3.60
2023-03-31T12:28:19.135Z,3.10
2023-03-31T12:29:19.427Z,5.10
2023-03-31T12:30:19.702Z,5.10
2023-03-31T12:31:20.022Z,3.80
2023-03-31T12:32:20.315Z,3.60
2023-03-31T12:33:20.544Z,3.20
2023-03-31T12:34:20.818Z,3.50
2023-03-31T12:35:21.069Z,3.40
2023-03-31T12:36:21.483Z,2.80
2023-03-31T12:37:21.659Z,2.60
2023-03-31T12:38:22.661Z,3.30
2023-03-31T12:39:22.231Z,3.80
2023-03-31T12:40:22.446Z,4.30
2023-03-31T12:41:22.681Z,5.30
2023-03-31T12:42:25.066Z,3.50
2023-03-31T12:43:23.216Z,3.50
2023-03-31T12:44:23.442Z,5.80
2023-03-31T12:45:23.748Z,3.50
2023-03-31T12:46:24.052Z,3.20
2023-03-31T12:47:24.328Z,3.30
2023-03-31T12:48:24.555Z,3.10
2023-03-31T12:49:25.100Z,3.10
2023-03-31T12:50:25.097Z,3.20
2023-03-31T12:51:25.431Z,2.20
2023-03-31T12:52:26.763Z,2.20
2023-03-31T12:53:25.983Z,5.30
2023-03-31T12:54:26.452Z,3.50
2023-03-31T12:55:26.690Z,4.00
2023-03-31T12:56:27.862Z,6.70
2023-03-31T12:57:27.672Z,2.40
2023-03-31T12:58:28.883Z,3.90
2023-03-31T12:59:27.768Z,2.00
2023-03-31T13:00:28.040Z,2.70
2023-03-31T13:01:28.278Z,2.50
2023-03-31T13:02:28.534Z,3.00
2023-03-31T13:03:28.709Z,3.40
2023-03-31T13:04:29.103Z,2.90
2023-03-31T13:05:29.517Z,3.30
2023-03-31T13:06:29.584Z,3.10
2023-03-31T13:07:29.799Z,3.40
2023-03-31T13:08:30.992Z,2.30
2023-03-31T13:09:30.451Z,2.70
2023-03-31T13:10:30.709Z,2.50
2023-03-31T13:11:31.004Z,2.50
2023-03-31T13:12:31.289Z,4.20
2023-03-31T13:13:31.522Z,3.90
2023-03-31T13:14:31.906Z,3.80
2023-03-31T13:15:32.098Z,5.80
2023-03-31T13:16:32.395Z,4.00
2023-03-31T13:17:32.641Z,6.10
2023-03-31T13:18:32.951Z,8.20
2023-03-31T13:19:33.267Z,8.40
2023-03-31T13:20:33.397Z,6.20
2023-03-31T13:21:34.723Z,5.50
2023-03-31T13:22:34.059Z,3.40